sensor_id;sensor_type;location;lat;lon;timestamp;P1;durP1;ratioP1;P2;durP2;ratioP2
40675;SDS011;26359;48.750;9.314;2023-02-19T00:01:07;6.00;;;5.50;;
40675;SDS011;26359;48.750;9.314;2023-02-19T00:03:37;7.22;;;5.75;;
40675;SDS011;26359;48.750;9.314;2023-02-19T00:06:04;6.40;;;5.80;;
40675;SDS011;26359;48.750;9.314;2023-02-19T00:08:31;7.57;;;6.93;;
40675;SDS011;26359;48.750;9.314;2023-02-19T00:11:05;7.25;;;6.57;;
40675;SDS011;26359;48.750;9.314;2023-02-19T00:13:36;11.13;;;10.25;;
40675;SDS011;26359;48.750;9.314;2023-02-19T00:16:06;17.67;;;16.58;;
40675;SDS011;26359;48.750;9.314;2023-02-19T00:18:32;12.88;;;11.88;;
40675;SDS011;26359;48.750;9.314;2023-02-19T00:20:59;11.75;;;10.95;;
40675;SDS011;26359;48.750;9.314;2023-02-19T00:23:24;12.95;;;11.75;;
40675;SDS011;26359;48.750;9.314;2023-02-19T00:25:51;7.80;;;7.10;;
40675;SDS011;26359;48.750;9.314;2023-02-19T00:28:16;6.93;;;6.32;;
40675;SDS011;26359;48.750;9.314;2023-02-19T00:30:42;7.10;;;6.50;;
40675;SDS011;26359;48.750;9.314;2023-02-19T00:33:07;7.45;;;6.60;;
40675;SDS011;26359;48.750;9.314;2023-02-19T00:35:33;7.88;;;7.18;;
40675;SDS011;26359;48.750;9.314;2023-02-19T00:37:59;7.30;;;6.80;;
40675;SDS011;26359;48.750;9.314;2023-02-19T00:40:25;7.57;;;7.07;;
40675;SDS011;26359;48.750;9.314;2023-02-19T00:42:51;8.43;;;7.63;;
40675;SDS011;26359;48.750;9.314;2023-02-19T00:45:16;6.22;;;5.53;;
40675;SDS011;26359;48.750;9.314;2023-02-19T00:47:42;5.30;;;4.82;;
40675;SDS011;26359;48.750;9.314;2023-02-19T00:50:08;5.30;;;4.90;;
40675;SDS011;26359;48.750;9.314;2023-02-19T00:52:33;5.10;;;4.80;;
40675;SDS011;26359;48.750;9.314;2023-02-19T00:54:59;5.60;;;5.15;;
40675;SDS011;26359;48.750;9.314;2023-02-19T00:57:24;6.13;;;5.70;;
40675;SDS011;26359;48.750;9.314;2023-02-19T00:59:50;5.22;;;4.82;;
40675;SDS011;26359;48.750;9.314;2023-02-19T01:02:16;5.47;;;5.00;;
40675;SDS011;26359;48.750;9.314;2023-02-19T01:04:41;5.80;;;5.40;;
40675;SDS011;26359;48.750;9.314;2023-02-19T01:07:07;6.15;;;5.72;;
40675;SDS011;26359;48.750;9.314;2023-02-19T01:09:32;5.53;;;5.13;;
40675;SDS011;26359;48.750;9.314;2023-02-19T01:11:58;4.97;;;4.57;;
40675;SDS011;26359;48.750;9.314;2023-02-19T01:14:23;10.00;;;9.40;;
40675;SDS011;26359;48.750;9.314;2023-02-19T01:16:49;11.57;;;10.95;;
40675;SDS011;26359;48.750;9.314;2023-02-19T01:19:14;7.13;;;6.53;;
40675;SDS011;26359;48.750;9.314;2023-02-19T01:21:40;5.55;;;5.07;;
40675;SDS011;26359;48.750;9.314;2023-02-19T01:24:05;5.18;;;4.78;;
40675;SDS011;26359;48.750;9.314;2023-02-19T01:26:31;4.65;;;4.25;;
40675;SDS011;26359;48.750;9.314;2023-02-19T01:28:58;4.57;;;4.28;;
40675;SDS011;26359;48.750;9.314;2023-02-19T01:31:25;4.68;;;4.28;;
40675;SDS011;26359;48.750;9.314;2023-02-19T01:33:58;4.70;;;4.40;;
40675;SDS011;26359;48.750;9.314;2023-02-19T01:36:25;4.32;;;4.13;;
40675;SDS011;26359;48.750;9.314;2023-02-19T01:38:51;4.13;;;3.83;;
40675;SDS011;26359;48.750;9.314;2023-02-19T01:41:18;3.78;;;3.47;;
40675;SDS011;26359;48.750;9.314;2023-02-19T01:46:38;3.67;;;3.38;;
40675;SDS011;26359;48.750;9.314;2023-02-19T01:49:06;4.60;;;3.13;;
40675;SDS011;26359;48.750;9.314;2023-02-19T01:54:19;4.35;;;3.90;;
40675;SDS011;26359;48.750;9.314;2023-02-19T01:56:48;4.00;;;3.63;;
40675;SDS011;26359;48.750;9.314;2023-02-19T01:59:15;3.40;;;3.20;;
40675;SDS011;26359;48.750;9.314;2023-02-19T02:01:42;3.90;;;3.60;;
40675;SDS011;26359;48.750;9.314;2023-02-19T02:04:08;4.32;;;4.03;;
40675;SDS011;26359;48.750;9.314;2023-02-19T02:06:43;3.83;;;3.53;;
40675;SDS011;26359;48.750;9.314;2023-02-19T02:09:17;4.18;;;3.78;;
40675;SDS011;26359;48.750;9.314;2023-02-19T02:12:02;3.83;;;3.53;;
40675;SDS011;26359;48.750;9.314;2023-02-19T02:14:29;4.22;;;3.83;;
40675;SDS011;26359;48.750;9.314;2023-02-19T02:19:53;4.05;;;3.83;;
40675;SDS011;26359;48.750;9.314;2023-02-19T02:22:28;4.30;;;4.03;;
40675;SDS011;26359;48.750;9.314;2023-02-19T02:31:18;3.83;;;3.53;;
40675;SDS011;26359;48.750;9.314;2023-02-19T02:36:25;4.10;;;3.80;;
40675;SDS011;26359;48.750;9.314;2023-02-19T02:38:57;7.10;;;6.60;;
40675;SDS011;26359;48.750;9.314;2023-02-19T02:41:25;9.75;;;9.13;;
40675;SDS011;26359;48.750;9.314;2023-02-19T02:43:51;9.85;;;9.25;;
40675;SDS011;26359;48.750;9.314;2023-02-19T02:46:18;15.35;;;14.45;;
40675;SDS011;26359;48.750;9.314;2023-02-19T02:48:48;15.57;;;14.52;;
40675;SDS011;26359;48.750;9.314;2023-02-19T02:51:35;16.52;;;15.57;;
40675;SDS011;26359;48.750;9.314;2023-02-19T02:54:11;18.67;;;17.67;;
40675;SDS011;26359;48.750;9.314;2023-02-19T02:56:58;14.85;;;13.95;;
40675;SDS011;26359;48.750;9.314;2023-02-19T02:59:26;12.50;;;11.75;;
40675;SDS011;26359;48.750;9.314;2023-02-19T03:01:55;10.07;;;9.35;;
40675;SDS011;26359;48.750;9.314;2023-02-19T03:04:48;9.50;;;8.80;;
40675;SDS011;26359;48.750;9.314;2023-02-19T03:10:38;10.20;;;9.57;;
40675;SDS011;26359;48.750;9.314;2023-02-19T03:13:00;8.95;;;8.38;;
40675;SDS011;26359;48.750;9.314;2023-02-19T03:15:48;5.90;;;5.60;;
40675;SDS011;26359;48.750;9.314;2023-02-19T03:18:36;11.68;;;11.00;;
40675;SDS011;26359;48.750;9.314;2023-02-19T03:21:21;10.13;;;9.57;;
40675;SDS011;26359;48.750;9.314;2023-02-19T03:23:47;6.13;;;5.78;;
40675;SDS011;26359;48.750;9.314;2023-02-19T03:26:33;6.13;;;5.72;;
40675;SDS011;26359;48.750;9.314;2023-02-19T03:29:00;5.13;;;4.82;;
40675;SDS011;26359;48.750;9.314;2023-02-19T03:31:46;9.45;;;8.95;;
40675;SDS011;26359;48.750;9.314;2023-02-19T03:34:20;6.93;;;6.47;;
40675;SDS011;26359;48.750;9.314;2023-02-19T03:36:54;4.88;;;4.57;;
40675;SDS011;26359;48.750;9.314;2023-02-19T03:44:22;3.45;;;3.15;;
40675;SDS011;26359;48.750;9.314;2023-02-19T03:49:48;4.90;;;4.50;;
40675;SDS011;26359;48.750;9.314;2023-02-19T03:52:25;4.15;;;3.95;;
40675;SDS011;26359;48.750;9.314;2023-02-19T03:55:15;4.18;;;3.88;;
40675;SDS011;26359;48.750;9.314;2023-02-19T03:57:46;3.53;;;3.20;;
40675;SDS011;26359;48.750;9.314;2023-02-19T04:00:35;3.40;;;3.10;;
40675;SDS011;26359;48.750;9.314;2023-02-19T04:03:07;4.05;;;3.65;;
40675;SDS011;26359;48.750;9.314;2023-02-19T04:06:03;3.05;;;2.85;;
40675;SDS011;26359;48.750;9.314;2023-02-19T04:08:34;3.58;;;3.35;;
40675;SDS011;26359;48.750;9.314;2023-02-19T04:11:01;3.20;;;3.00;;
40675;SDS011;26359;48.750;9.314;2023-02-19T04:15:59;3.45;;;3.15;;
40675;SDS011;26359;48.750;9.314;2023-02-19T04:18:31;3.88;;;3.45;;
40675;SDS011;26359;48.750;9.314;2023-02-19T04:21:00;3.72;;;3.42;;
40675;SDS011;26359;48.750;9.314;2023-02-19T04:23:29;3.22;;;2.92;;
40675;SDS011;26359;48.750;9.314;2023-02-19T04:25:58;3.70;;;3.40;;
40675;SDS011;26359;48.750;9.314;2023-02-19T04:28:25;3.03;;;2.83;;
40675;SDS011;26359;48.750;9.314;2023-02-19T04:30:51;3.28;;;3.03;;
40675;SDS011;26359;48.750;9.314;2023-02-19T04:33:17;3.40;;;3.20;;
40675;SDS011;26359;48.750;9.314;2023-02-19T04:35:42;2.38;;;2.17;;
40675;SDS011;26359;48.750;9.314;2023-02-19T04:38:08;4.65;;;4.38;;
40675;SDS011;26359;48.750;9.314;2023-02-19T04:40:34;7.03;;;6.70;;
40675;SDS011;26359;48.750;9.314;2023-02-19T04:42:59;5.22;;;4.93;;
40675;SDS011;26359;48.750;9.314;2023-02-19T04:45:25;4.05;;;3.75;;
40675;SDS011;26359;48.750;9.314;2023-02-19T04:47:50;5.15;;;4.75;;
40675;SDS011;26359;48.750;9.314;2023-02-19T04:50:16;5.93;;;5.63;;
40675;SDS011;26359;48.750;9.314;2023-02-19T04:52:41;4.28;;;4.03;;
40675;SDS011;26359;48.750;9.314;2023-02-19T04:55:07;5.45;;;5.10;;
40675;SDS011;26359;48.750;9.314;2023-02-19T04:57:33;2.33;;;2.20;;
40675;SDS011;26359;48.750;9.314;2023-02-19T04:59:59;2.83;;;1.90;;
40675;SDS011;26359;48.750;9.314;2023-02-19T05:02:25;2.22;;;2.10;;
40675;SDS011;26359;48.750;9.314;2023-02-19T05:04:51;3.15;;;2.95;;
40675;SDS011;26359;48.750;9.314;2023-02-19T05:07:16;5.20;;;3.53;;
40675;SDS011;26359;48.750;9.314;2023-02-19T05:09:42;2.85;;;2.75;;
40675;SDS011;26359;48.750;9.314;2023-02-19T05:12:08;2.95;;;2.75;;
40675;SDS011;26359;48.750;9.314;2023-02-19T05:14:33;3.47;;;3.30;;
40675;SDS011;26359;48.750;9.314;2023-02-19T05:16:59;3.25;;;3.15;;
40675;SDS011;26359;48.750;9.314;2023-02-19T05:19:24;4.80;;;4.50;;
40675;SDS011;26359;48.750;9.314;2023-02-19T05:21:50;2.03;;;1.90;;
40675;SDS011;26359;48.750;9.314;2023-02-19T05:24:15;3.13;;;2.92;;
40675;SDS011;26359;48.750;9.314;2023-02-19T05:26:41;3.95;;;3.75;;
40675;SDS011;26359;48.750;9.314;2023-02-19T05:29:06;3.40;;;3.20;;
40675;SDS011;26359;48.750;9.314;2023-02-19T05:31:32;3.78;;;3.58;;
40675;SDS011;26359;48.750;9.314;2023-02-19T05:33:57;4.90;;;4.68;;
40675;SDS011;26359;48.750;9.314;2023-02-19T05:36:23;2.10;;;2.00;;
40675;SDS011;26359;48.750;9.314;2023-02-19T05:38:55;2.67;;;2.58;;
40675;SDS011;26359;48.750;9.314;2023-02-19T05:41:23;2.90;;;2.70;;
40675;SDS011;26359;48.750;9.314;2023-02-19T05:43:50;4.63;;;4.43;;
40675;SDS011;26359;48.750;9.314;2023-02-19T05:46:18;3.97;;;3.78;;
40675;SDS011;26359;48.750;9.314;2023-02-19T05:48:46;3.60;;;3.50;;
40675;SDS011;26359;48.750;9.314;2023-02-19T05:51:14;3.70;;;3.40;;
40675;SDS011;26359;48.750;9.314;2023-02-19T05:53:41;3.58;;;3.47;;
40675;SDS011;26359;48.750;9.314;2023-02-19T05:58:52;2.88;;;2.78;;
40675;SDS011;26359;48.750;9.314;2023-02-19T06:01:19;3.88;;;3.67;;
40675;SDS011;26359;48.750;9.314;2023-02-19T06:03:46;3.72;;;3.60;;
40675;SDS011;26359;48.750;9.314;2023-02-19T06:06:12;3.38;;;3.28;;
40675;SDS011;26359;48.750;9.314;2023-02-19T06:08:38;5.10;;;4.90;;
40675;SDS011;26359;48.750;9.314;2023-02-19T06:11:04;3.22;;;3.13;;
40675;SDS011;26359;48.750;9.314;2023-02-19T06:13:30;5.43;;;5.22;;
40675;SDS011;26359;48.750;9.314;2023-02-19T06:15:55;3.15;;;3.05;;
40675;SDS011;26359;48.750;9.314;2023-02-19T06:18:21;4.57;;;4.38;;
40675;SDS011;26359;48.750;9.314;2023-02-19T06:20:46;2.63;;;2.53;;
40675;SDS011;26359;48.750;9.314;2023-02-19T06:23:12;2.45;;;2.35;;
40675;SDS011;26359;48.750;9.314;2023-02-19T06:25:37;5.97;;;5.78;;
40675;SDS011;26359;48.750;9.314;2023-02-19T06:28:03;3.80;;;3.65;;
40675;SDS011;26359;48.750;9.314;2023-02-19T06:30:29;2.20;;;2.10;;
40675;SDS011;26359;48.750;9.314;2023-02-19T06:32:55;1.38;;;1.38;;
40675;SDS011;26359;48.750;9.314;2023-02-19T06:35:20;2.83;;;2.72;;
40675;SDS011;26359;48.750;9.314;2023-02-19T06:37:47;2.35;;;2.25;;
40675;SDS011;26359;48.750;9.314;2023-02-19T06:40:13;1.70;;;1.60;;
40675;SDS011;26359;48.750;9.314;2023-02-19T06:42:38;1.63;;;1.52;;
40675;SDS011;26359;48.750;9.314;2023-02-19T06:45:04;3.08;;;2.90;;
40675;SDS011;26359;48.750;9.314;2023-02-19T06:47:31;2.05;;;1.95;;
40675;SDS011;26359;48.750;9.314;2023-02-19T06:49:58;3.00;;;2.90;;
40675;SDS011;26359;48.750;9.314;2023-02-19T06:52:24;4.30;;;4.13;;
40675;SDS011;26359;48.750;9.314;2023-02-19T06:54:50;3.45;;;3.35;;
40675;SDS011;26359;48.750;9.314;2023-02-19T06:57:16;4.15;;;3.95;;
40675;SDS011;26359;48.750;9.314;2023-02-19T06:59:42;4.32;;;4.13;;
40675;SDS011;26359;48.750;9.314;2023-02-19T07:02:09;2.60;;;2.50;;
40675;SDS011;26359;48.750;9.314;2023-02-19T07:04:36;3.60;;;3.40;;
40675;SDS011;26359;48.750;9.314;2023-02-19T07:07:01;3.10;;;3.00;;
40675;SDS011;26359;48.750;9.314;2023-02-19T07:09:27;3.60;;;3.40;;
40675;SDS011;26359;48.750;9.314;2023-02-19T07:11:52;2.33;;;2.13;;
40675;SDS011;26359;48.750;9.314;2023-02-19T07:14:18;2.58;;;2.47;;
40675;SDS011;26359;48.750;9.314;2023-02-19T07:16:45;4.75;;;4.55;;
40675;SDS011;26359;48.750;9.314;2023-02-19T07:19:11;5.20;;;5.00;;
40675;SDS011;26359;48.750;9.314;2023-02-19T07:21:38;2.80;;;2.70;;
40675;SDS011;26359;48.750;9.314;2023-02-19T07:24:06;4.18;;;3.97;;
40675;SDS011;26359;48.750;9.314;2023-02-19T07:26:32;4.20;;;4.00;;
40675;SDS011;26359;48.750;9.314;2023-02-19T07:28:57;3.83;;;3.63;;
40675;SDS011;26359;48.750;9.314;2023-02-19T07:31:23;4.07;;;3.88;;
40675;SDS011;26359;48.750;9.314;2023-02-19T07:33:49;3.13;;;2.92;;
40675;SDS011;26359;48.750;9.314;2023-02-19T07:36:16;3.38;;;3.17;;
40675;SDS011;26359;48.750;9.314;2023-02-19T07:38:42;3.92;;;3.72;;
40675;SDS011;26359;48.750;9.314;2023-02-19T07:41:08;2.90;;;2.80;;
40675;SDS011;26359;48.750;9.314;2023-02-19T07:43:34;3.20;;;3.00;;
40675;SDS011;26359;48.750;9.314;2023-02-19T07:46:02;3.35;;;3.15;;
40675;SDS011;26359;48.750;9.314;2023-02-19T07:48:28;4.55;;;4.35;;
40675;SDS011;26359;48.750;9.314;2023-02-19T07:50:54;4.38;;;4.07;;
40675;SDS011;26359;48.750;9.314;2023-02-19T07:53:21;4.18;;;3.97;;
40675;SDS011;26359;48.750;9.314;2023-02-19T07:55:48;4.97;;;4.78;;
40675;SDS011;26359;48.750;9.314;2023-02-19T07:58:14;7.45;;;7.00;;
40675;SDS011;26359;48.750;9.314;2023-02-19T08:00:40;3.15;;;2.95;;
40675;SDS011;26359;48.750;9.314;2023-02-19T08:03:05;4.38;;;4.18;;
40675;SDS011;26359;48.750;9.314;2023-02-19T08:05:32;3.72;;;3.30;;
40675;SDS011;26359;48.750;9.314;2023-02-19T08:08:00;4.30;;;3.97;;
40675;SDS011;26359;48.750;9.314;2023-02-19T08:10:26;4.53;;;4.13;;
40675;SDS011;26359;48.750;9.314;2023-02-19T08:13:11;5.82;;;5.53;;
40675;SDS011;26359;48.750;9.314;2023-02-19T08:15:49;8.70;;;8.30;;
40675;SDS011;26359;48.750;9.314;2023-02-19T08:18:15;6.72;;;6.43;;
40675;SDS011;26359;48.750;9.314;2023-02-19T08:20:42;7.05;;;6.72;;
40675;SDS011;26359;48.750;9.314;2023-02-19T08:23:08;3.00;;;2.90;;
40675;SDS011;26359;48.750;9.314;2023-02-19T08:25:34;4.10;;;3.80;;
40675;SDS011;26359;48.750;9.314;2023-02-19T08:28:00;2.90;;;2.70;;
40675;SDS011;26359;48.750;9.314;2023-02-19T08:30:27;3.35;;;3.22;;
40675;SDS011;26359;48.750;9.314;2023-02-19T08:32:53;4.03;;;3.78;;
40675;SDS011;26359;48.750;9.314;2023-02-19T08:35:19;5.15;;;4.85;;
40675;SDS011;26359;48.750;9.314;2023-02-19T08:37:45;8.55;;;8.15;;
40675;SDS011;26359;48.750;9.314;2023-02-19T08:40:10;9.05;;;8.55;;
40675;SDS011;26359;48.750;9.314;2023-02-19T08:42:36;5.90;;;5.50;;
40675;SDS011;26359;48.750;9.314;2023-02-19T08:45:02;3.20;;;3.00;;
40675;SDS011;26359;48.750;9.314;2023-02-19T08:47:28;2.95;;;2.85;;
40675;SDS011;26359;48.750;9.314;2023-02-19T08:49:54;3.50;;;3.30;;
40675;SDS011;26359;48.750;9.314;2023-02-19T08:52:20;3.40;;;3.20;;
40675;SDS011;26359;48.750;9.314;2023-02-19T08:54:46;4.47;;;4.28;;
40675;SDS011;26359;48.750;9.314;2023-02-19T08:57:11;3.75;;;3.55;;
40675;SDS011;26359;48.750;9.314;2023-02-19T08:59:37;3.55;;;3.35;;
40675;SDS011;26359;48.750;9.314;2023-02-19T09:02:02;3.75;;;3.47;;
40675;SDS011;26359;48.750;9.314;2023-02-19T09:04:28;4.25;;;4.03;;
40675;SDS011;26359;48.750;9.314;2023-02-19T09:06:54;5.82;;;5.50;;
40675;SDS011;26359;48.750;9.314;2023-02-19T09:09:19;4.07;;;3.88;;
40675;SDS011;26359;48.750;9.314;2023-02-19T09:11:45;3.85;;;3.65;;
40675;SDS011;26359;48.750;9.314;2023-02-19T09:14:10;4.50;;;4.30;;
40675;SDS011;26359;48.750;9.314;2023-02-19T09:16:36;4.55;;;4.15;;
40675;SDS011;26359;48.750;9.314;2023-02-19T09:19:02;3.45;;;3.28;;
40675;SDS011;26359;48.750;9.314;2023-02-19T09:21:28;2.97;;;2.88;;
40675;SDS011;26359;48.750;9.314;2023-02-19T09:23:54;4.38;;;4.18;;
40675;SDS011;26359;48.750;9.314;2023-02-19T09:26:19;4.70;;;4.30;;
40675;SDS011;26359;48.750;9.314;2023-02-19T09:28:45;3.95;;;3.65;;
40675;SDS011;26359;48.750;9.314;2023-02-19T09:31:12;4.00;;;3.80;;
40675;SDS011;26359;48.750;9.314;2023-02-19T09:33:42;3.45;;;3.25;;
40675;SDS011;26359;48.750;9.314;2023-02-19T09:36:09;3.30;;;3.10;;
40675;SDS011;26359;48.750;9.314;2023-02-19T09:38:35;7.15;;;6.57;;
40675;SDS011;26359;48.750;9.314;2023-02-19T09:41:07;4.85;;;4.45;;
40675;SDS011;26359;48.750;9.314;2023-02-19T09:43:38;3.50;;;3.20;;
40675;SDS011;26359;48.750;9.314;2023-02-19T09:46:09;4.43;;;3.97;;
40675;SDS011;26359;48.750;9.314;2023-02-19T09:48:47;6.30;;;5.82;;
40675;SDS011;26359;48.750;9.314;2023-02-19T09:51:13;6.10;;;5.50;;
40675;SDS011;26359;48.750;9.314;2023-02-19T09:53:41;3.58;;;3.03;;
40675;SDS011;26359;48.750;9.314;2023-02-19T09:56:09;3.63;;;3.33;;
40675;SDS011;26359;48.750;9.314;2023-02-19T09:58:41;3.55;;;3.30;;
40675;SDS011;26359;48.750;9.314;2023-02-19T10:01:12;4.45;;;3.22;;
40675;SDS011;26359;48.750;9.314;2023-02-19T10:03:38;4.28;;;3.38;;
40675;SDS011;26359;48.750;9.314;2023-02-19T10:06:26;5.72;;;4.07;;
40675;SDS011;26359;48.750;9.314;2023-02-19T10:17:02;4.93;;;4.53;;
40675;SDS011;26359;48.750;9.314;2023-02-19T10:19:30;4.70;;;4.13;;
40675;SDS011;26359;48.750;9.314;2023-02-19T10:21:57;4.75;;;3.63;;
40675;SDS011;26359;48.750;9.314;2023-02-19T10:24:24;4.22;;;3.83;;
40675;SDS011;26359;48.750;9.314;2023-02-19T10:26:52;5.65;;;3.58;;
40675;SDS011;26359;48.750;9.314;2023-02-19T10:29:18;4.70;;;3.85;;
40675;SDS011;26359;48.750;9.314;2023-02-19T10:31:45;4.35;;;3.65;;
40675;SDS011;26359;48.750;9.314;2023-02-19T10:34:16;5.55;;;4.43;;
40675;SDS011;26359;48.750;9.314;2023-02-19T10:36:43;4.03;;;3.72;;
40675;SDS011;26359;48.750;9.314;2023-02-19T10:41:45;8.35;;;7.68;;
40675;SDS011;26359;48.750;9.314;2023-02-19T10:44:13;4.75;;;3.47;;
40675;SDS011;26359;48.750;9.314;2023-02-19T10:46:47;3.95;;;3.65;;
40675;SDS011;26359;48.750;9.314;2023-02-19T10:49:34;3.70;;;3.50;;
40675;SDS011;26359;48.750;9.314;2023-02-19T10:54:57;4.20;;;3.80;;
40675;SDS011;26359;48.750;9.314;2023-02-19T10:57:48;5.03;;;4.07;;
40675;SDS011;26359;48.750;9.314;2023-02-19T11:02:40;3.67;;;3.38;;
40675;SDS011;26359;48.750;9.314;2023-02-19T11:07:42;7.33;;;3.50;;
40675;SDS011;26359;48.750;9.314;2023-02-19T11:10:25;4.25;;;3.55;;
40675;SDS011;26359;48.750;9.314;2023-02-19T11:12:56;5.45;;;4.95;;
40675;SDS011;26359;48.750;9.314;2023-02-19T11:15:29;6.07;;;5.45;;
40675;SDS011;26359;48.750;9.314;2023-02-19T11:23:19;5.05;;;4.07;;
40675;SDS011;26359;48.750;9.314;2023-02-19T11:25:52;9.98;;;9.18;;
40675;SDS011;26359;48.750;9.314;2023-02-19T11:28:29;11.80;;;11.00;;
40675;SDS011;26359;48.750;9.314;2023-02-19T11:31:33;8.23;;;7.53;;
40675;SDS011;26359;48.750;9.314;2023-02-19T11:41:44;15.80;;;14.68;;
40675;SDS011;26359;48.750;9.314;2023-02-19T11:52:42;6.43;;;5.88;;
40675;SDS011;26359;48.750;9.314;2023-02-19T11:55:26;7.07;;;6.57;;
40675;SDS011;26359;48.750;9.314;2023-02-19T12:03:47;6.43;;;3.88;;
40675;SDS011;26359;48.750;9.314;2023-02-19T12:06:25;3.53;;;3.17;;
40675;SDS011;26359;48.750;9.314;2023-02-19T12:11:31;6.53;;;6.13;;
40675;SDS011;26359;48.750;9.314;2023-02-19T12:14:11;4.95;;;4.57;;
40675;SDS011;26359;48.750;9.314;2023-02-19T12:30:31;7.70;;;6.88;;
40675;SDS011;26359;48.750;9.314;2023-02-19T12:33:32;19.67;;;18.58;;
40675;SDS011;26359;48.750;9.314;2023-02-19T12:47:04;9.35;;;8.43;;
40675;SDS011;26359;48.750;9.314;2023-02-19T12:49:32;13.30;;;12.50;;
40675;SDS011;26359;48.750;9.314;2023-02-19T12:52:00;12.27;;;11.52;;
40675;SDS011;26359;48.750;9.314;2023-02-19T12:54:33;11.52;;;10.80;;
40675;SDS011;26359;48.750;9.314;2023-02-19T12:57:05;9.52;;;8.95;;
40675;SDS011;26359;48.750;9.314;2023-02-19T12:59:40;11.48;;;10.88;;
40675;SDS011;26359;48.750;9.314;2023-02-19T13:02:18;4.93;;;4.60;;
40675;SDS011;26359;48.750;9.314;2023-02-19T13:04:59;7.38;;;6.78;;
40675;SDS011;26359;48.750;9.314;2023-02-19T13:07:36;5.03;;;4.63;;
40675;SDS011;26359;48.750;9.314;2023-02-19T13:10:24;5.50;;;3.78;;
40675;SDS011;26359;48.750;9.314;2023-02-19T13:12:53;4.28;;;3.95;;
40675;SDS011;26359;48.750;9.314;2023-02-19T13:15:39;3.92;;;3.53;;
40675;SDS011;26359;48.750;9.314;2023-02-19T13:18:16;4.82;;;3.95;;
40675;SDS011;26359;48.750;9.314;2023-02-19T13:20:44;4.03;;;3.72;;
40675;SDS011;26359;48.750;9.314;2023-02-19T13:31:28;4.60;;;4.30;;
40675;SDS011;26359;48.750;9.314;2023-02-19T13:37:06;6.18;;;5.63;;
40675;SDS011;26359;48.750;9.314;2023-02-19T13:39:33;5.90;;;5.60;;
40675;SDS011;26359;48.750;9.314;2023-02-19T13:41:59;6.03;;;4.70;;
40675;SDS011;26359;48.750;9.314;2023-02-19T13:44:26;5.35;;;4.85;;
40675;SDS011;26359;48.750;9.314;2023-02-19T13:46:54;6.22;;;5.05;;
40675;SDS011;26359;48.750;9.314;2023-02-19T13:49:23;8.63;;;7.82;;
40675;SDS011;26359;48.750;9.314;2023-02-19T13:51:52;5.40;;;4.68;;
40675;SDS011;26359;48.750;9.314;2023-02-19T13:54:36;14.38;;;13.48;;
40675;SDS011;26359;48.750;9.314;2023-02-19T13:59:48;14.98;;;13.93;;
40675;SDS011;26359;48.750;9.314;2023-02-19T14:02:33;18.85;;;17.63;;
40675;SDS011;26359;48.750;9.314;2023-02-19T14:05:07;7.22;;;5.22;;
40675;SDS011;26359;48.750;9.314;2023-02-19T14:10:14;4.07;;;3.20;;
40675;SDS011;26359;48.750;9.314;2023-02-19T14:13:07;4.63;;;3.28;;
40675;SDS011;26359;48.750;9.314;2023-02-19T14:15:41;5.25;;;3.65;;
40675;SDS011;26359;48.750;9.314;2023-02-19T14:21:14;3.85;;;3.55;;
40675;SDS011;26359;48.750;9.314;2023-02-19T14:23:42;3.95;;;3.55;;
40675;SDS011;26359;48.750;9.314;2023-02-19T14:26:09;6.13;;;3.72;;
40675;SDS011;26359;48.750;9.314;2023-02-19T14:28:36;4.65;;;3.25;;
40675;SDS011;26359;48.750;9.314;2023-02-19T14:31:15;4.82;;;4.43;;
40675;SDS011;26359;48.750;9.314;2023-02-19T14:33:54;5.30;;;3.95;;
40675;SDS011;26359;48.750;9.314;2023-02-19T14:36:27;5.07;;;3.50;;
40675;SDS011;26359;48.750;9.314;2023-02-19T14:39:05;5.70;;;3.35;;
40675;SDS011;26359;48.750;9.314;2023-02-19T14:41:36;5.72;;;4.07;;
40675;SDS011;26359;48.750;9.314;2023-02-19T14:44:03;4.55;;;4.15;;
40675;SDS011;26359;48.750;9.314;2023-02-19T14:46:41;3.90;;;3.60;;
40675;SDS011;26359;48.750;9.314;2023-02-19T14:49:36;6.20;;;4.82;;
40675;SDS011;26359;48.750;9.314;2023-02-19T14:52:15;8.52;;;4.47;;
40675;SDS011;26359;48.750;9.314;2023-02-19T14:54:54;9.95;;;8.98;;
40675;SDS011;26359;48.750;9.314;2023-02-19T14:57:28;11.38;;;10.35;;
40675;SDS011;26359;48.750;9.314;2023-02-19T14:59:59;14.13;;;12.85;;
40675;SDS011;26359;48.750;9.314;2023-02-19T15:02:29;11.43;;;10.73;;
40675;SDS011;26359;48.750;9.314;2023-02-19T15:04:56;14.85;;;13.88;;
40675;SDS011;26359;48.750;9.314;2023-02-19T15:07:23;14.73;;;13.63;;
40675;SDS011;26359;48.750;9.314;2023-02-19T15:09:53;17.38;;;16.42;;
40675;SDS011;26359;48.750;9.314;2023-02-19T15:12:23;19.98;;;18.75;;
40675;SDS011;26359;48.750;9.314;2023-02-19T15:14:52;20.25;;;19.02;;
40675;SDS011;26359;48.750;9.314;2023-02-19T15:17:24;18.80;;;17.70;;
40675;SDS011;26359;48.750;9.314;2023-02-19T15:19:52;18.73;;;17.65;;
40675;SDS011;26359;48.750;9.314;2023-02-19T15:22:20;17.95;;;16.77;;
40675;SDS011;26359;48.750;9.314;2023-02-19T15:24:48;12.13;;;11.27;;
40675;SDS011;26359;48.750;9.314;2023-02-19T15:27:21;11.05;;;10.10;;
40675;SDS011;26359;48.750;9.314;2023-02-19T15:29:49;16.30;;;15.35;;
40675;SDS011;26359;48.750;9.314;2023-02-19T15:32:17;12.38;;;11.50;;
40675;SDS011;26359;48.750;9.314;2023-02-19T15:34:52;12.77;;;11.88;;
40675;SDS011;26359;48.750;9.314;2023-02-19T15:37:22;5.50;;;4.93;;
40675;SDS011;26359;48.750;9.314;2023-02-19T15:39:49;4.93;;;4.53;;
40675;SDS011;26359;48.750;9.314;2023-02-19T15:42:18;5.68;;;4.72;;
40675;SDS011;26359;48.750;9.314;2023-02-19T15:49:57;5.45;;;3.72;;
40675;SDS011;26359;48.750;9.314;2023-02-19T15:52:32;4.53;;;4.13;;
40675;SDS011;26359;48.750;9.314;2023-02-19T15:55:06;5.82;;;4.47;;
40675;SDS011;26359;48.750;9.314;2023-02-19T15:57:46;7.70;;;4.60;;
40675;SDS011;26359;48.750;9.314;2023-02-19T16:00:39;4.65;;;3.83;;
40675;SDS011;26359;48.750;9.314;2023-02-19T16:03:23;5.65;;;4.20;;
40675;SDS011;26359;48.750;9.314;2023-02-19T16:06:00;4.90;;;4.40;;
40675;SDS011;26359;48.750;9.314;2023-02-19T16:08:29;6.18;;;3.72;;
40675;SDS011;26359;48.750;9.314;2023-02-19T16:10:58;5.40;;;3.67;;
40675;SDS011;26359;48.750;9.314;2023-02-19T16:13:26;7.40;;;4.55;;
40675;SDS011;26359;48.750;9.314;2023-02-19T16:15:58;5.93;;;3.95;;
40675;SDS011;26359;48.750;9.314;2023-02-19T16:18:25;6.50;;;5.18;;
40675;SDS011;26359;48.750;9.314;2023-02-19T16:20:50;7.85;;;5.03;;
40675;SDS011;26359;48.750;9.314;2023-02-19T16:23:16;6.20;;;5.30;;
40675;SDS011;26359;48.750;9.314;2023-02-19T16:25:46;5.72;;;4.88;;
40675;SDS011;26359;48.750;9.314;2023-02-19T16:28:13;6.38;;;4.85;;
40675;SDS011;26359;48.750;9.314;2023-02-19T16:30:42;5.03;;;4.22;;
40675;SDS011;26359;48.750;9.314;2023-02-19T16:36:16;8.98;;;5.20;;
40675;SDS011;26359;48.750;9.314;2023-02-19T16:41:31;6.65;;;4.82;;
40675;SDS011;26359;48.750;9.314;2023-02-19T16:43:57;4.43;;;4.03;;
40675;SDS011;26359;48.750;9.314;2023-02-19T16:46:22;6.38;;;4.35;;
40675;SDS011;26359;48.750;9.314;2023-02-19T16:48:48;5.35;;;4.82;;
40675;SDS011;26359;48.750;9.314;2023-02-19T16:51:22;5.63;;;5.10;;
40675;SDS011;26359;48.750;9.314;2023-02-19T16:53:49;6.68;;;5.93;;
40675;SDS011;26359;48.750;9.314;2023-02-19T16:56:15;7.63;;;7.03;;
40675;SDS011;26359;48.750;9.314;2023-02-19T16:58:47;10.48;;;9.70;;
40675;SDS011;26359;48.750;9.314;2023-02-19T17:01:13;17.23;;;16.08;;
40675;SDS011;26359;48.750;9.314;2023-02-19T17:03:39;10.43;;;9.65;;
40675;SDS011;26359;48.750;9.314;2023-02-19T17:06:05;8.05;;;7.28;;
40675;SDS011;26359;48.750;9.314;2023-02-19T17:08:32;5.95;;;4.80;;
40675;SDS011;26359;48.750;9.314;2023-02-19T17:11:00;6.43;;;5.93;;
40675;SDS011;26359;48.750;9.314;2023-02-19T17:13:27;7.18;;;5.93;;
40675;SDS011;26359;48.750;9.314;2023-02-19T17:15:55;6.00;;;4.05;;
40675;SDS011;26359;48.750;9.314;2023-02-19T17:18:21;5.25;;;4.35;;